MV Nord Discovery — 3EGP — position and weather

sailwx.info

Track history (hours):
 
Tides and Currents Weather Stations Pressure Air Temp Water Temp Dewpoint Dewpoint Depression Visibility Wind Speed Wind Dir Waves Ship Positions

MV Nord Discovery

Last reported at 2015-Mar-22 23:03 UTC. Time now 2015-Mar-27 17:22 UTC.
Position N 29°52' E 123°57'.

Length 183 m; draft 7 m.

Type: Cargo ship. MMSI: 354855000.

Date/timePositionNaut miles runAvg speedWind from/ knotsBaromVisibWave heightAir tempDewpointWater temp
2015-Mar-22 23:03N 29°52' E 123°57'6611.9
2015-Mar-22 17:30N 29°43' E 122°42'1112.0
2015-Mar-22 16:33N 29°43' E 122°28'7 2.4
2015-Mar-22 13:29N 29°46' E 122°21'0 0.1
2015-Mar-22 09:14N 29°46' E 122°21'4 6.3
2015-Mar-22 08:33N 29°47' E 122°16'7 1.5
2015-Mar-22 03:33N 29°53' E 122°12'7 6.4
2015-Mar-22 02:30N 29°48' E 122°07'0 0.1
2015-Mar-22 01:33N 29°48' E 122°07'0 0.1
2015-Mar-22 00:24N 29°48' E 122°07'0 0.0
2015-Mar-21 23:30N 29°48' E 122°07'0 0.0
2015-Mar-21 22:30N 29°48' E 122°07'0 0.0
2015-Mar-21 21:30N 29°48' E 122°07'0 0.0
2015-Mar-21 20:24N 29°48' E 122°07'0 0.1
2015-Mar-21 19:27N 29°48' E 122°07'0 0.2
2015-Mar-21 18:33N 29°48' E 122°07'0 0.0
2015-Mar-21 17:33N 29°48' E 122°07'0 0.0
2015-Mar-21 16:12N 29°48' E 122°07'0 0.1
2015-Mar-21 15:33N 29°48' E 122°07'0 0.0
2015-Mar-21 14:30N 29°48' E 122°07'0 0.1
2015-Mar-21 13:30N 29°48' E 122°07'0 0.1
2015-Mar-21 12:30N 29°48' E 122°07'0 0.0
2015-Mar-21 11:12N 29°48' E 122°07'0 0.0
2015-Mar-21 10:12N 29°48' E 122°07'0 0.0
2015-Mar-21 09:18N 29°48' E 122°07'0 0.1
2015-Mar-21 08:24N 29°48' E 122°07'0 0.1
2015-Mar-21 06:30N 29°48' E 122°07'0 0.1
2015-Mar-21 05:27N 29°48' E 122°07'0 0.0
2015-Mar-21 04:30N 29°48' E 122°07'0 0.0
2015-Mar-20 23:33N 29°48' E 122°07'0 0.0
2015-Mar-20 22:33N 29°48' E 122°07'0 0.0
2015-Mar-20 21:33N 29°48' E 122°07'0 0.0
2015-Mar-20 20:30N 29°48' E 122°07'0 0.0
2015-Mar-20 18:12N 29°48' E 122°07'0 0.1
2015-Mar-20 17:24N 29°48' E 122°07'0 0.0
2015-Mar-20 16:30N 29°48' E 122°07'0 0.0
2015-Mar-20 15:30N 29°48' E 122°07'0 0.1
2015-Mar-20 14:29N 29°48' E 122°07'2 1.6
2015-Mar-20 13:14N 29°47' E 122°05'0 0.0
2015-Mar-20 12:29N 29°47' E 122°05'0 0.0
2015-Mar-20 11:32N 29°47' E 122°05'0 0.0
2015-Mar-20 09:20N 29°47' E 122°05'0 0.0
2015-Mar-20 08:28N 29°47' E 122°05'0 0.0
2015-Mar-20 07:31N 29°47' E 122°05'0 0.0
2015-Mar-20 06:10N 29°47' E 122°05'0 0.0
2015-Mar-20 05:25N 29°47' E 122°05'0 0.0
2015-Mar-20 02:28N 29°47' E 122°05'0 0.0
2015-Mar-20 01:16N 29°47' E 122°05'0 0.0
2015-Mar-19 23:16N 29°47' E 122°05'0 0.0
2015-Mar-19 22:28N 29°47' E 122°05'0 0.0
2015-Mar-19 21:16N 29°47' E 122°05'0 0.0
2015-Mar-19 20:22N 29°47' E 122°05'0 0.0
2015-Mar-19 19:22N 29°47' E 122°05'0 0.0
2015-Mar-19 18:28N 29°47' E 122°05'0 0.0
2015-Mar-19 17:28N 29°47' E 122°05'0 0.0
2015-Mar-19 16:28N 29°47' E 122°05'0 0.0
2015-Mar-19 14:16N 29°47' E 122°05'0 0.0
2015-Mar-19 12:28N 29°47' E 122°05'0 0.0
2015-Mar-19 11:10N 29°47' E 122°05'0 0.0
2015-Mar-19 10:22N 29°47' E 122°05'0 0.0
2015-Mar-19 09:16N 29°47' E 122°05'0 0.0
2015-Mar-19 08:22N 29°47' E 122°05'0 0.0
2015-Mar-19 06:04N 29°47' E 122°05'  
2015-Mar-16 08:10N 29°48' E 122°06'0 0.0
2015-Mar-16 02:16N 29°48' E 122°06'0 0.1
2015-Mar-16 01:28N 29°48' E 122°06'0 0.1
2015-Mar-15 23:10N 29°48' E 122°06'0 0.0
2015-Mar-15 22:16N 29°48' E 122°06'0 0.0
2015-Mar-15 21:28N 29°48' E 122°06'0 0.1
2015-Mar-15 19:10N 29°48' E 122°06'0 0.0
2015-Mar-15 18:22N 29°48' E 122°06'0 0.0
2015-Mar-15 17:28N 29°48' E 122°06'0 0.0
2015-Mar-15 16:25N 29°48' E 122°06'0 0.0
2015-Mar-15 14:28N 29°48' E 122°06'0 0.0
2015-Mar-15 12:10N 29°48' E 122°06'0 0.2
2015-Mar-15 11:31N 29°48' E 122°06'0 0.0
2015-Mar-15 10:16N 29°48' E 122°06'0 0.0
2015-Mar-15 07:25N 29°48' E 122°06'0 0.0
2015-Mar-15 03:10N 29°48' E 122°06'0 0.0
2015-Mar-15 02:28N 29°48' E 122°06'0 0.1
2015-Mar-14 23:28N 29°48' E 122°06'0 0.1
2015-Mar-14 22:28N 29°48' E 122°06'0 0.0
2015-Mar-14 21:10N 29°48' E 122°06'0 0.0
2015-Mar-14 20:10N 29°48' E 122°06'0 0.1
2015-Mar-14 19:10N 29°48' E 122°06'0 0.2
2015-Mar-14 18:04N 29°48' E 122°06'0 0.0
2015-Mar-14 17:04N 29°48' E 122°06'0 0.0
2015-Mar-14 13:22N 29°48' E 122°06'0 0.1
2015-Mar-14 10:28N 29°48' E 122°06'0 0.0
2015-Mar-14 06:10N 29°48' E 122°06'0 0.0
2015-Mar-14 02:16N 29°48' E 122°06'0 0.0
2015-Mar-13 23:28N 29°48' E 122°06'0 0.1
2015-Mar-13 22:10N 29°48' E 122°06'0 0.0
2015-Mar-13 21:28N 29°48' E 122°06'0 0.0
2015-Mar-13 18:04N 29°48' E 122°06'0 0.1
2015-Mar-13 16:28N 29°48' E 122°06'0 0.1
2015-Mar-13 14:31N 29°48' E 122°06'0 0.0
2015-Mar-13 13:04N 29°48' E 122°06'0 0.0
2015-Mar-13 11:16N 29°48' E 122°06'0 0.1
2015-Mar-13 10:22N 29°48' E 122°06'0 0.1
2015-Mar-13 09:07N 29°48' E 122°06'0 0.0
2015-Mar-13 04:22N 29°48' E 122°06'0 0.1
2015-Mar-13 02:07N 29°48' E 122°06'0 0.1
2015-Mar-13 01:28N 29°48' E 122°06'  
Track history (hours):
 
Tides and Currents Weather Stations Pressure Air Temp Water Temp Dewpoint Dewpoint Depression Visibility Wind Speed Wind Dir Waves Ship Positions

MV Nord Discovery

Last reported at 2015-Mar-22 23:03 UTC. Time now 2015-Mar-27 17:22 UTC.
Position N 29°52' E 123°57'.

Length 183 m; draft 7 m.

Type: Cargo ship. MMSI: 354855000.

Date/timePositionNaut miles runAvg speedWind from/ knotsBaromVisibWave heightAir tempDewpointWater temp
2015-Mar-22 23:03N 29°52' E 123°57'6611.9
2015-Mar-22 17:30N 29°43' E 122°42'1112.0
2015-Mar-22 16:33N 29°43' E 122°28'7 2.4
2015-Mar-22 13:29N 29°46' E 122°21'0 0.1
2015-Mar-22 09:14N 29°46' E 122°21'4 6.3
2015-Mar-22 08:33N 29°47' E 122°16'7 1.5
2015-Mar-22 03:33N 29°53' E 122°12'7 6.4
2015-Mar-22 02:30N 29°48' E 122°07'0 0.1
2015-Mar-22 01:33N 29°48' E 122°07'0 0.1
2015-Mar-22 00:24N 29°48' E 122°07'0 0.0
2015-Mar-21 23:30N 29°48' E 122°07'0 0.0
2015-Mar-21 22:30N 29°48' E 122°07'0 0.0
2015-Mar-21 21:30N 29°48' E 122°07'0 0.0
2015-Mar-21 20:24N 29°48' E 122°07'0 0.1
2015-Mar-21 19:27N 29°48' E 122°07'0 0.2
2015-Mar-21 18:33N 29°48' E 122°07'0 0.0
2015-Mar-21 17:33N 29°48' E 122°07'0 0.0
2015-Mar-21 16:12N 29°48' E 122°07'0 0.1
2015-Mar-21 15:33N 29°48' E 122°07'0 0.0
2015-Mar-21 14:30N 29°48' E 122°07'0 0.1
2015-Mar-21 13:30N 29°48' E 122°07'0 0.1
2015-Mar-21 12:30N 29°48' E 122°07'0 0.0
2015-Mar-21 11:12N 29°48' E 122°07'0 0.0
2015-Mar-21 10:12N 29°48' E 122°07'0 0.0
2015-Mar-21 09:18N 29°48' E 122°07'0 0.1
2015-Mar-21 08:24N 29°48' E 122°07'0 0.1
2015-Mar-21 06:30N 29°48' E 122°07'0 0.1
2015-Mar-21 05:27N 29°48' E 122°07'0 0.0
2015-Mar-21 04:30N 29°48' E 122°07'0 0.0
2015-Mar-20 23:33N 29°48' E 122°07'0 0.0
2015-Mar-20 22:33N 29°48' E 122°07'0 0.0
2015-Mar-20 21:33N 29°48' E 122°07'0 0.0
2015-Mar-20 20:30N 29°48' E 122°07'0 0.0
2015-Mar-20 18:12N 29°48' E 122°07'0 0.1
2015-Mar-20 17:24N 29°48' E 122°07'0 0.0
2015-Mar-20 16:30N 29°48' E 122°07'0 0.0
2015-Mar-20 15:30N 29°48' E 122°07'0 0.1
2015-Mar-20 14:29N 29°48' E 122°07'2 1.6
2015-Mar-20 13:14N 29°47' E 122°05'0 0.0
2015-Mar-20 12:29N 29°47' E 122°05'0 0.0
2015-Mar-20 11:32N 29°47' E 122°05'0 0.0
2015-Mar-20 09:20N 29°47' E 122°05'0 0.0
2015-Mar-20 08:28N 29°47' E 122°05'0 0.0
2015-Mar-20 07:31N 29°47' E 122°05'0 0.0
2015-Mar-20 06:10N 29°47' E 122°05'0 0.0
2015-Mar-20 05:25N 29°47' E 122°05'0 0.0
2015-Mar-20 02:28N 29°47' E 122°05'0 0.0
2015-Mar-20 01:16N 29°47' E 122°05'0 0.0
2015-Mar-19 23:16N 29°47' E 122°05'0 0.0
2015-Mar-19 22:28N 29°47' E 122°05'0 0.0
2015-Mar-19 21:16N 29°47' E 122°05'0 0.0
2015-Mar-19 20:22N 29°47' E 122°05'0 0.0
2015-Mar-19 19:22N 29°47' E 122°05'0 0.0
2015-Mar-19 18:28N 29°47' E 122°05'0 0.0
2015-Mar-19 17:28N 29°47' E 122°05'0 0.0
2015-Mar-19 16:28N 29°47' E 122°05'0 0.0
2015-Mar-19 14:16N 29°47' E 122°05'0 0.0
2015-Mar-19 12:28N 29°47' E 122°05'0 0.0
2015-Mar-19 11:10N 29°47' E 122°05'0 0.0
2015-Mar-19 10:22N 29°47' E 122°05'0 0.0
2015-Mar-19 09:16N 29°47' E 122°05'0 0.0
2015-Mar-19 08:22N 29°47' E 122°05'0 0.0
2015-Mar-19 06:04N 29°47' E 122°05'  
2015-Mar-16 08:10N 29°48' E 122°06'0 0.0
2015-Mar-16 02:16N 29°48' E 122°06'0 0.1
2015-Mar-16 01:28N 29°48' E 122°06'0 0.1
2015-Mar-15 23:10N 29°48' E 122°06'0 0.0
2015-Mar-15 22:16N 29°48' E 122°06'0 0.0
2015-Mar-15 21:28N 29°48' E 122°06'0 0.1
2015-Mar-15 19:10N 29°48' E 122°06'0 0.0
2015-Mar-15 18:22N 29°48' E 122°06'0 0.0
2015-Mar-15 17:28N 29°48' E 122°06'0 0.0
2015-Mar-15 16:25N 29°48' E 122°06'0 0.0
2015-Mar-15 14:28N 29°48' E 122°06'0 0.0
2015-Mar-15 12:10N 29°48' E 122°06'0 0.2
2015-Mar-15 11:31N 29°48' E 122°06'0 0.0
2015-Mar-15 10:16N 29°48' E 122°06'0 0.0
2015-Mar-15 07:25N 29°48' E 122°06'0 0.0
2015-Mar-15 03:10N 29°48' E 122°06'0 0.0
2015-Mar-15 02:28N 29°48' E 122°06'0 0.1
2015-Mar-14 23:28N 29°48' E 122°06'0 0.1
2015-Mar-14 22:28N 29°48' E 122°06'0 0.0
2015-Mar-14 21:10N 29°48' E 122°06'0 0.0
2015-Mar-14 20:10N 29°48' E 122°06'0 0.1
2015-Mar-14 19:10N 29°48' E 122°06'0 0.2
2015-Mar-14 18:04N 29°48' E 122°06'0 0.0
2015-Mar-14 17:04N 29°48' E 122°06'0 0.0
2015-Mar-14 13:22N 29°48' E 122°06'0 0.1
2015-Mar-14 10:28N 29°48' E 122°06'0 0.0
2015-Mar-14 06:10N 29°48' E 122°06'0 0.0
2015-Mar-14 02:16N 29°48' E 122°06'0 0.0
2015-Mar-13 23:28N 29°48' E 122°06'0 0.1
2015-Mar-13 22:10N 29°48' E 122°06'0 0.0
2015-Mar-13 21:28N 29°48' E 122°06'0 0.0
2015-Mar-13 18:04N 29°48' E 122°06'0 0.1
2015-Mar-13 16:28N 29°48' E 122°06'0 0.1
2015-Mar-13 14:31N 29°48' E 122°06'0 0.0
2015-Mar-13 13:04N 29°48' E 122°06'0 0.0
2015-Mar-13 11:16N 29°48' E 122°06'0 0.1
2015-Mar-13 10:22N 29°48' E 122°06'0 0.1
2015-Mar-13 09:07N 29°48' E 122°06'0 0.0
2015-Mar-13 04:22N 29°48' E 122°06'0 0.1
2015-Mar-13 02:07N 29°48' E 122°06'0 0.1
2015-Mar-13 01:28N 29°48' E 122°06'  

Dump ship's entire track history